createdAt,value
2022-08-20T05:59:14.083Z,10.32
2022-08-20T06:02:36.143Z,11.63
2022-08-20T06:05:39.137Z,13.88
2022-08-20T06:08:42.008Z,12.95
2022-08-20T06:11:45.048Z,13.88
2022-08-20T06:14:47.730Z,11.10
2022-08-20T06:17:58.198Z,9.10
2022-08-20T06:21:01.410Z,12.30
2022-08-20T06:24:04.952Z,14.52
2022-08-20T06:27:07.710Z,15.00
2022-08-20T06:30:13.756Z,11.10
2022-08-20T06:33:16.484Z,9.07
2022-08-20T06:36:19.748Z,7.07
2022-08-20T06:39:23.767Z,10.77
2022-08-20T06:42:26.790Z,10.68
2022-08-20T06:45:32.641Z,7.75
2022-08-20T06:48:36.031Z,4.50
2022-08-20T06:51:38.991Z,12.45
2022-08-20T06:54:45.654Z,13.07
2022-08-20T06:57:55.575Z,14.23
2022-08-20T07:01:04.495Z,5.35
2022-08-20T07:04:12.472Z,6.28
2022-08-20T07:07:17.575Z,9.70
2022-08-20T07:10:21.653Z,8.18
2022-08-20T07:13:24.690Z,12.90
2022-08-20T07:16:28.409Z,17.20
2022-08-20T07:19:31.638Z,14.40
2022-08-20T07:22:37.127Z,11.10
2022-08-20T07:25:42.185Z,12.57
2022-08-20T07:28:45.598Z,12.13
2022-08-20T07:32:07.160Z,11.43
2022-08-20T07:35:16.996Z,17.08
2022-08-20T07:38:26.848Z,12.98
2022-08-20T07:44:32.336Z,8.52
2022-08-20T07:47:35.901Z,9.68
2022-08-20T07:50:39.368Z,12.80
2022-08-20T07:56:45.520Z,13.52
2022-08-20T07:59:48.955Z,9.10
2022-08-20T08:02:52.667Z,10.55
2022-08-20T08:05:57.039Z,10.00
2022-08-20T08:09:05.515Z,15.23
2022-08-20T08:12:08.792Z,9.77
2022-08-20T08:15:17.538Z,9.35
2022-08-20T08:18:26.836Z,7.97
2022-08-20T08:21:32.929Z,6.25
2022-08-20T08:24:35.968Z,12.32
2022-08-20T08:27:39.889Z,14.60
2022-08-20T08:30:46.375Z,10.13
2022-08-20T08:33:49.438Z,7.85
2022-08-20T08:36:52.932Z,10.90
2022-08-20T08:39:56.186Z,9.43
2022-08-20T08:43:03.050Z,10.35
2022-08-20T08:46:09.986Z,13.35
2022-08-20T08:49:18.389Z,10.27
2022-08-20T08:52:24.770Z,8.50
2022-08-20T08:55:31.171Z,8.02
2022-08-20T08:58:36.331Z,8.25
2022-08-20T09:01:53.913Z,10.77
2022-08-20T09:05:02.283Z,10.88
2022-08-20T09:08:12.627Z,11.00
2022-08-20T09:11:21.420Z,13.35
2022-08-20T09:14:27.224Z,11.10
2022-08-20T09:17:30.735Z,15.90
2022-08-20T09:20:34.321Z,12.30
2022-08-20T09:23:37.990Z,9.05
2022-08-20T09:26:41.364Z,16.15
2022-08-20T09:29:44.124Z,13.13
2022-08-20T09:32:48.630Z,8.00
2022-08-20T09:35:51.444Z,7.60
2022-08-20T09:38:54.516Z,10.95
2022-08-20T09:42:10.664Z,12.07
2022-08-20T09:45:14.803Z,11.05
2022-08-20T09:48:17.558Z,12.43
2022-08-20T09:51:21.440Z,8.18
2022-08-20T09:54:28.144Z,6.78
2022-08-20T09:57:33.635Z,8.35
2022-08-20T10:00:36.482Z,9.80
2022-08-20T10:03:41.777Z,10.15
2022-08-20T10:06:45.679Z,7.45
2022-08-20T10:09:48.856Z,5.05
2022-08-20T10:12:54.893Z,11.63
2022-08-20T10:15:58.466Z,8.73
2022-08-20T10:19:01.569Z,8.88
2022-08-20T10:22:04.952Z,6.87
2022-08-20T10:25:08.456Z,7.20
2022-08-20T10:28:11.428Z,5.57
2022-08-20T10:31:14.189Z,7.90
2022-08-20T10:34:17.439Z,8.15
2022-08-20T10:37:23.540Z,7.40
2022-08-20T10:40:26.810Z,7.07
2022-08-20T10:43:29.757Z,6.82
2022-08-20T10:46:32.804Z,7.37
2022-08-20T10:49:35.570Z,5.18
2022-08-20T10:52:38.607Z,8.85
2022-08-20T10:55:41.685Z,6.35
2022-08-20T10:58:44.668Z,3.35
2022-08-20T11:01:47.465Z,6.05
2022-08-20T11:04:51.020Z,4.25
2022-08-20T11:07:56.697Z,4.62
2022-08-20T11:11:00.266Z,4.55
2022-08-20T11:14:03.153Z,4.90
2022-08-20T11:17:06.707Z,7.03
2022-08-20T11:20:17.809Z,3.58
2022-08-20T11:23:24.901Z,3.20
2022-08-20T11:26:27.513Z,4.25
2022-08-20T11:29:33.906Z,4.90
2022-08-20T11:32:37.077Z,2.65
2022-08-20T11:35:48.328Z,6.82
2022-08-20T11:38:53.188Z,10.63
2022-08-20T11:41:56.278Z,4.12
2022-08-20T11:44:58.913Z,3.92
2022-08-20T11:48:01.988Z,4.97
2022-08-20T11:51:05.398Z,4.93
2022-08-20T11:54:08.585Z,5.22
2022-08-20T11:57:11.640Z,4.60
2022-08-20T12:00:19.694Z,11.18
2022-08-20T12:03:22.807Z,6.47
2022-08-20T12:06:25.699Z,7.75
2022-08-20T12:09:29.550Z,5.20
2022-08-20T12:12:33.150Z,4.80
2022-08-20T12:15:37.094Z,6.68
2022-08-20T12:18:40.767Z,8.32
2022-08-20T12:21:43.759Z,4.93
2022-08-20T12:24:46.834Z,7.10
2022-08-20T12:27:49.916Z,8.55
2022-08-20T12:30:52.735Z,4.97
2022-08-20T12:33:55.774Z,6.30
2022-08-20T12:37:07.346Z,9.15
2022-08-20T12:40:15.384Z,8.18
2022-08-20T12:43:21.656Z,10.05
2022-08-20T12:46:27.270Z,7.43
2022-08-20T12:49:30.334Z,4.93
2022-08-20T12:52:33.779Z,6.78
2022-08-20T12:55:36.688Z,5.68
2022-08-20T12:58:39.725Z,5.37
2022-08-20T13:01:42.771Z,12.13
2022-08-20T13:04:46.359Z,9.85
2022-08-20T13:07:49.876Z,7.87
2022-08-20T13:10:53.045Z,7.37
2022-08-20T13:13:55.764Z,8.65
2022-08-20T13:17:00.816Z,5.07
2022-08-20T13:20:07.130Z,4.12
2022-08-20T13:23:10.523Z,6.68
2022-08-20T13:26:13.347Z,6.12
2022-08-20T13:29:18.229Z,5.72
2022-08-20T13:32:21.864Z,4.62
2022-08-20T13:35:45.183Z,4.75
2022-08-20T13:38:48.023Z,5.35
2022-08-20T13:41:51.462Z,3.25
2022-08-20T13:44:54.729Z,6.65
2022-08-20T13:48:14.506Z,5.05
2022-08-20T13:51:19.301Z,4.22
2022-08-20T13:54:30.238Z,3.72
2022-08-20T13:57:34.839Z,7.12
2022-08-20T14:00:38.259Z,5.45
2022-08-20T14:03:44.537Z,6.47
2022-08-20T14:06:48.989Z,6.28
2022-08-20T14:09:59.192Z,7.53
2022-08-20T14:13:03.363Z,7.60
2022-08-20T14:16:06.595Z,3.70
2022-08-20T14:19:24.362Z,9.63
2022-08-20T14:22:30.267Z,7.35
2022-08-20T14:25:34.171Z,4.25
2022-08-20T14:28:39.266Z,5.68
2022-08-20T14:32:02.716Z,6.95
2022-08-20T14:35:14.608Z,8.30
2022-08-20T14:38:25.368Z,3.45
2022-08-20T14:41:28.410Z,7.97
2022-08-20T14:44:31.744Z,4.20
2022-08-20T14:47:38.174Z,5.10
2022-08-20T14:50:41.588Z,8.15
2022-08-20T14:53:45.653Z,7.87
2022-08-20T14:56:48.777Z,8.68
2022-08-20T15:00:10.339Z,3.62
2022-08-20T15:03:32.085Z,5.10
2022-08-20T15:06:38.763Z,4.72
2022-08-20T15:09:43.867Z,4.30
2022-08-20T15:12:47.653Z,4.32
2022-08-20T15:15:50.615Z,7.30
2022-08-20T15:18:56.539Z,5.15
2022-08-20T15:22:07.531Z,4.18
2022-08-20T15:25:15.589Z,6.22
2022-08-20T15:28:23.147Z,5.55
2022-08-20T15:31:29.903Z,5.75
2022-08-20T15:34:40.293Z,3.65
2022-08-20T15:37:50.012Z,4.70
2022-08-20T15:40:52.916Z,3.55
2022-08-20T15:44:00.310Z,6.40
2022-08-20T15:47:28.493Z,5.93
2022-08-20T15:51:01.183Z,5.82
2022-08-20T15:54:24.994Z,5.15
2022-08-20T15:57:49.897Z,7.60
2022-08-20T16:00:55.698Z,8.15
2022-08-20T16:04:32.456Z,7.12
2022-08-20T16:07:58.348Z,3.40
2022-08-20T16:11:40.353Z,5.28
2022-08-20T16:14:47.604Z,6.93
2022-08-20T16:18:06.012Z,6.28
2022-08-20T16:21:13.605Z,5.18
2022-08-20T16:24:36.688Z,5.25
2022-08-20T16:28:08.897Z,7.90
2022-08-20T16:31:17.793Z,9.45
2022-08-20T16:34:52.158Z,6.03
2022-08-20T16:38:26.291Z,5.65
2022-08-20T16:41:31.952Z,7.82
2022-08-20T16:44:44.941Z,9.75
2022-08-20T16:47:50.259Z,12.35
2022-08-20T16:51:05.644Z,10.90
2022-08-20T16:54:10.334Z,5.12
2022-08-20T16:57:17.136Z,6.40
2022-08-20T17:00:35.773Z,6.53
2022-08-20T17:03:50.211Z,6.40
2022-08-20T17:06:53.080Z,5.50
2022-08-20T17:28:44.896Z,5.30
2022-08-20T17:31:51.927Z,6.93
2022-08-20T17:34:58.715Z,5.82
2022-08-20T17:38:03.791Z,5.03
2022-08-20T17:41:17.363Z,5.97
2022-08-20T17:44:31.139Z,6.00
2022-08-20T17:47:39.002Z,7.22
2022-08-20T17:50:43.470Z,6.07
2022-08-20T17:53:51.963Z,8.27
2022-08-20T17:57:00.696Z,3.90
2022-08-20T18:00:09.195Z,8.38
2022-08-20T18:03:26.492Z,6.75
2022-08-20T18:07:10.998Z,5.18
2022-08-20T18:10:20.734Z,8.35
2022-08-20T18:13:48.242Z,7.97
2022-08-20T18:17:29.668Z,8.88
2022-08-20T18:21:03.159Z,9.15
2022-08-20T18:24:12.192Z,11.65
2022-08-20T18:27:18.982Z,9.73
2022-08-20T18:30:26.090Z,6.87
2022-08-20T18:33:38.641Z,6.22
2022-08-20T18:36:42.481Z,5.15
2022-08-20T18:39:48.622Z,7.03
2022-08-20T18:42:51.907Z,4.97
2022-08-20T18:45:54.719Z,6.22
2022-08-20T18:49:01.220Z,6.70
2022-08-20T18:52:26.269Z,5.55
2022-08-20T18:55:39.457Z,6.55
2022-08-20T18:59:04.127Z,5.82
2022-08-20T19:02:19.802Z,7.55
2022-08-20T19:05:34.903Z,12.80
2022-08-20T19:09:05.702Z,8.25
2022-08-20T19:12:33.017Z,5.62
2022-08-20T19:15:44.110Z,6.75
2022-08-20T19:18:52.055Z,5.87
2022-08-20T19:21:56.388Z,8.20
2022-08-20T19:24:59.178Z,9.75
2022-08-20T19:28:23.716Z,6.93
2022-08-20T19:31:31.276Z,6.97
2022-08-20T19:34:35.576Z,6.78
2022-08-20T19:37:51.684Z,9.30
2022-08-20T19:41:10.448Z,5.15
2022-08-20T19:44:46.809Z,9.55
2022-08-20T19:48:27.001Z,6.90
2022-08-20T19:52:02.999Z,8.50
2022-08-20T19:55:23.903Z,6.00
2022-08-20T19:58:27.822Z,7.82
2022-08-20T20:01:32.305Z,9.15
2022-08-20T20:04:55.829Z,5.57
2022-08-20T20:08:04.309Z,7.07
2022-08-20T20:11:07.923Z,6.72
2022-08-20T20:14:13.619Z,9.55
2022-08-20T20:17:23.106Z,12.45
2022-08-20T20:20:30.936Z,8.18
2022-08-20T20:23:45.653Z,4.87
2022-08-20T20:26:50.785Z,6.55
2022-08-20T20:30:04.043Z,9.55
2022-08-20T20:33:32.791Z,11.63
2022-08-20T20:36:43.270Z,19.27
2022-08-20T20:39:46.104Z,6.97
2022-08-20T20:43:07.926Z,5.60
2022-08-20T20:46:23.490Z,5.30
2022-08-20T20:49:46.870Z,5.50
2022-08-20T20:52:54.577Z,3.28
2022-08-20T20:56:00.298Z,3.42
2022-08-20T20:59:07.169Z,5.78
2022-08-20T21:02:10.532Z,7.68
2022-08-20T21:05:15.810Z,2.70
2022-08-20T21:08:19.389Z,2.00
2022-08-20T21:11:22.195Z,2.10
2022-08-20T21:14:25.214Z,2.70
2022-08-20T21:17:28.363Z,2.80
2022-08-20T21:20:32.291Z,2.97
2022-08-20T21:23:40.264Z,2.40
2022-08-20T21:26:45.546Z,4.00
2022-08-20T21:29:48.626Z,2.67
2022-08-20T21:32:52.082Z,3.00
2022-08-20T21:35:56.615Z,2.55
2022-08-20T21:38:59.646Z,3.67
2022-08-20T21:42:05.810Z,6.07
2022-08-20T21:45:28.939Z,4.90
2022-08-20T21:48:32.647Z,3.62
2022-08-20T21:51:36.073Z,3.55
2022-08-20T21:54:38.739Z,2.10
2022-08-20T21:57:43.239Z,2.33
2022-08-20T22:00:52.951Z,3.40
2022-08-20T22:03:55.986Z,2.70
2022-08-20T22:06:58.923Z,2.05
2022-08-20T22:10:02.036Z,2.37
2022-08-20T22:13:05.116Z,2.92
2022-08-20T22:16:10.738Z,4.37
2022-08-20T22:19:16.282Z,2.20
2022-08-20T22:22:21.211Z,2.17
2022-08-20T22:25:23.930Z,1.98
2022-08-20T22:28:27.167Z,1.70
2022-08-20T22:31:32.330Z,2.95
2022-08-20T22:34:37.206Z,1.98
2022-08-20T22:37:39.970Z,1.70
2022-08-20T22:40:43.989Z,1.70
2022-08-20T22:43:55.734Z,1.70
2022-08-20T22:47:05.973Z,1.77
2022-08-20T22:50:11.150Z,1.60
2022-08-20T22:53:15.959Z,1.70
2022-08-20T22:56:19.851Z,4.25
2022-08-20T22:59:25.003Z,1.62
2022-08-20T23:02:28.109Z,2.87
2022-08-20T23:05:33.844Z,1.90
2022-08-20T23:08:39.262Z,4.00
2022-08-20T23:11:42.235Z,1.85
2022-08-20T23:14:45.777Z,1.80
2022-08-20T23:17:48.898Z,2.22
2022-08-20T23:20:56.360Z,2.95
2022-08-20T23:23:59.358Z,2.40
2022-08-20T23:27:05.577Z,2.80
2022-08-20T23:30:09.341Z,3.72
2022-08-20T23:33:12.370Z,2.42
2022-08-20T23:36:19.147Z,2.65
2022-08-20T23:39:22.890Z,2.60
2022-08-20T23:42:25.778Z,2.55
2022-08-20T23:45:30.026Z,2.50
2022-08-20T23:48:33.351Z,2.55
2022-08-20T23:51:36.250Z,2.40
2022-08-20T23:54:42.730Z,4.15
2022-08-20T23:57:45.485Z,2.30
